Lake Levels
Share |
Lake Levels
LAKES RIVERS MARINAS NEWS HOUSES EVENTS MAPS
1,652 Lakes:
Lake Store

Lake Levels

LakeLevels.info is a national information and alert service for lake water levels in the United States. With a FREE member account you can receive water level alerts by email when the water level reaches your desired alert level.


We currently offer Lake Level information and alerts for 100 lakes and serve 11,667 members with 28,141 alerts.


Sign-up for a Lake Level Alert




Filter By State:
Lake Name Current
Level
Full Pool +/-
Full Pool
Reading
Date - Time
Alan Henry (TX) 2,219.26 2,224.00 -4.74 8/28/2015  6:30:00 PM
Amistad (TX) 1,088.95 1,117.00 -28.05 8/28/2015  7:15:00 PM
Amon Carter (TX) 919.86 920.00 -0.14 8/28/2015  1:00:00 PM
Aquilla (TX) 536.40 537.50 -1.10 8/28/2015  4:30:00 PM
Arlington (TX) 545.19 550.00 -4.81 8/28/2015  12:00:00 AM
Arrowhead (TX) 925.60 926.00 -0.40 8/28/2015  12:00:00 AM
Athens (TX) 439.05 440.00 -0.95 8/28/2015  7:30:00 PM
Austin (TX) 491.94 492.80 -0.86 8/28/2015  12:58:00 PM
Bardwell (TX) 420.80 421.00 -0.20 8/28/2015  4:30:00 PM
Belton (TX) 594.06 594.00 0.06 8/28/2015  8:00:00 PM
Benbrook (TX) 690.57 694.00 -3.43 8/28/2015  8:00:00 PM
Bob Sandlin (TX) 336.19 337.50 -1.31 8/28/2015  9:50:00 AM
Bonham (TX) 563.40 565.00 -1.60 8/28/2015  6:00:00 PM
Brady Creek (TX) 1,729.22 1,743.00 -13.78 8/28/2015  8:45:00 PM
Bridgeport (TX) 834.32 836.00 -1.68 8/28/2015  7:00:00 PM
Brownwood (TX) 1,423.65 1,425.00 -1.35 8/28/2015  8:30:00 PM
Buchanan (TX) 1,006.64 1,020.50 -13.86 8/28/2015  12:58:00 PM
Caddo (LA TX) 168.70 168.50 0.20 8/28/2015  7:00:00 AM
Canyon (TX) 908.10 909.00 -0.90 8/28/2015  7:15:00 PM
Cedar Creek (TX) 320.88 322.00 -1.12 8/28/2015  7:45:00 PM
Champion Creek (TX) 2,044.32 2,083.00 -38.68 8/28/2015  8:51:00 AM
Cherokee (TX) 279.15 280.00 -0.85 8/28/2015  7:00:00 AM
Choke Canyon (TX) 198.78 220.50 -21.72 8/28/2015  7:30:00 AM
Cisco (TX) 1,511.69 1,520.00 -8.31 8/29/2015  1:30:00 AM
Coleman (TX) 1,710.97 1,718.00 -7.03 8/28/2015  7:30:00 PM
Coleto Creek (TX) 97.10 98.28 -1.18 8/28/2015  9:00:00 AM
Colorado City (TX) 2,051.34 2,070.20 -18.86 8/28/2015  8:51:00 AM
Conroe (TX) 199.95 201.00 -1.05 8/28/2015  7:45:00 PM
Corpus Christi (TX) 92.65 94.00 -1.35 8/28/2015  8:53:00 AM
E. V. Spence (TX) 1,838.88 1,898.00 -59.12 8/28/2015  7:00:00 PM
Eagle Mountain (TX) 647.75 649.00 -1.25 8/28/2015  7:45:00 PM
Falcon (TX) 282.36 301.20 -18.84 8/28/2015  12:58:00 PM
Fork (TX) 401.88 403.00 -1.12 8/28/2015  8:30:00 PM
Georgetown (TX) 786.35 791.00 -4.65 8/28/2015  8:00:00 PM
Graham (TX) 1,073.65 1,075.00 -1.35 8/28/2015  5:00:00 PM
Granbury (TX) 692.66 693.00 -0.34 8/28/2015  8:30:00 PM
Granger (TX) 504.09 504.00 0.09 8/28/2015  12:00:00 AM
Grapevine (TX) 542.54 535.00 7.54 8/28/2015  8:45:00 PM
Hords Creek (TX) 1,885.53 1,900.00 -14.47 8/28/2015  4:30:00 PM
Houston (TX) 42.44 41.70 0.74 8/28/2015  6:30:00 PM
Hubbard Creek (TX) 1,164.80 1,183.00 -18.20 8/28/2015  6:15:00 PM
Hubert M Moss (TX) 714.04 715.00 -0.96 8/28/2015  8:15:00 PM
Inks (TX) 887.29 886.90 0.39 8/28/2015  8:00:00 PM
Jacksonville (TX) 420.93 422.00 -1.07 8/28/2015  9:50:00 AM
JB Thomas (TX) 2,250.72 2,258.00 -7.28 8/28/2015  8:45:00 PM
Jim Chapman (TX) 439.01 440.00 -0.99 8/28/2015  9:50:00 AM
Joe Pool (TX) 525.13 522.00 3.13 8/28/2015  8:00:00 PM
Lake O' the Pines (TX) 229.95 228.50 1.45 8/28/2015  9:50:00 AM
Lavon (TX) 490.48 492.00 -1.52 8/28/2015  6:00:00 PM
Leon (TX) 1,373.93 ??? 8/28/2015  5:45:00 PM
Lewisville (TX) 523.47 522.00 1.47 8/28/2015  8:30:00 PM
Limestone (TX) 361.16 363.00 -1.84 8/28/2015  7:45:00 PM
Livingston (TX) 131.38 131.00 0.38 8/28/2015  7:15:00 PM
Lyndon B. Johnson (TX) 824.65 825.00 -0.35 8/28/2015  12:58:00 PM
MacKenzie (TX) 3,029.12 3,100.00 -70.88 8/28/2015  8:30:00 PM
Marble Falls (TX) 736.42 737.00 -0.58 8/28/2015  12:58:00 PM
Martin Creek (TX) 304.72 306.00 -1.28 8/28/2015  6:30:00 PM
Medina (TX) 1,051.21 1,062.00 -10.79 8/28/2015  7:00:00 PM
Meredith (TX) 2,873.89 2,941.00 -67.11 8/28/2015  8:30:00 PM
Mexia (TX) 446.97 448.30 -1.33 8/28/2015  8:15:00 PM
Millers Creek (TX) 1,333.37 1,334.00 -0.63 8/28/2015  5:00:00 PM
Mineral Wells (TX) 862.79 863.00 -0.21 8/29/2015  12:30:00 AM
Moss Creek (TX) 2,332.40 2,337.00 -4.60 8/28/2015  7:30:00 PM
Murvaul (TX) 264.34 265.50 -1.16 8/28/2015  9:50:00 AM
Nacogdoches (TX) 277.21 279.00 -1.79 8/28/2015  9:50:00 AM
Natural Dam Salt (TX) 2,447.33 2,457.00 -9.67 8/28/2015  8:51:00 AM
Navarro Mills (TX) 424.26 424.50 -0.24 8/28/2015  6:00:00 PM
Nocona (TX) 826.88 827.00 -0.12 8/28/2015  3:00:00 PM
O. C. Fisher (TX) 1,872.75 1,908.00 -35.25 8/28/2015  8:00:00 PM
O.H. Ivie (TX) 1,508.77 1,551.50 -42.73 8/28/2015  8:15:00 PM
Palestine (TX) 344.08 345.00 -0.92 8/28/2015  9:50:00 AM
Palo Pinto (TX) 865.98 867.00 -1.02 8/28/2015  6:15:00 PM
Pat Cleburne (TX) 731.58 733.60 -2.02 8/28/2015  8:00:00 PM
Pat Mayse (TX) 450.49 451.00 -0.51 8/28/2015  9:50:00 AM
Phantom Hill (TX) 1,628.49 1,635.90 -7.41 8/28/2015  12:00:00 AM
Possum Kingdom (TX) 998.66 1,000.00 -1.34 8/28/2015  9:11:00 AM
Proctor (TX) 1,160.88 1,162.00 -1.12 8/28/2015  8:30:00 PM
Ray Hubbard (TX) 434.13 435.50 -1.37 8/28/2015  5:30:00 PM
Ray Roberts (TX) 633.96 632.50 1.46 8/28/2015  6:15:00 PM
Red Bluff (TX) 2,821.23 2,827.13 -5.90 8/28/2015  8:51:00 AM
Richland Chambers (TX) 314.88 315.00 -0.12 8/28/2015  9:11:00 AM
Sam Rayburn (TX) 164.24 164.40 -0.16 8/28/2015  8:00:00 PM
Somerville (TX) 240.71 238.00 2.71 8/28/2015  8:00:00 PM
Squaw Creek (TX) 775.39 775.00 0.39 8/28/2015  8:00:00 PM
Stamford (TX) 1,415.95 1,417.00 -1.05 8/28/2015  5:30:00 PM
Steinhagen Reservoir (TX) 82.60 82.40 0.20 8/28/2015  8:00:00 PM
Stillhouse Hollow (TX) 621.45 622.00 -0.55 8/28/2015  6:00:00 PM
Tawakoni (TX) 436.78 437.50 -0.72 8/28/2015  8:30:00 PM
Texana (TX) 42.34 44.00 -1.66 8/28/2015  7:00:00 PM
Texoma (TX) 618.40 617.00 1.40 8/28/2015  8:00:00 PM
Toledo Bend (TX LA) 169.91 172.00 -2.09 8/28/2015  7:30:00 PM
Travis (TX) 668.35 681.00 -12.65 8/28/2015  6:00:00 PM
Twin Buttes (TX) 1,897.68 1,940.00 -42.32 8/28/2015  12:00:00 AM
Tyler (TX) 374.13 375.50 -1.37 8/28/2015  9:50:00 AM
Waco (TX) 461.02 462.00 -0.98 8/28/2015  11:15:00 AM
Waxahachie (TX) 528.86 ??? 8/28/2015  12:00:00 AM
White River (TX) 2,356.46 ??? 8/28/2015  5:15:00 PM
Whitney (TX) 531.74 533.00 -1.26 8/28/2015  8:15:00 PM
Worth (TX) 592.84 594.00 -1.16 8/28/2015  8:00:00 PM
Wright Patman (TX) 226.65 220.60 6.05 8/28/2015  9:50:00 AM


CURRENT DAILY STREAMFLOW CONDITIONS
High
90th percentile
75th - 89th percentile
25th - 74th percentile
10th - 24th percentile
10th percentile
Low
Not ranked

The colored dots on this map depict streamflow conditions as a percentile, which is computed from the period of record for the current day of the year. Only stations with at least 30 years of record are used. The gray circles indicate other stations that were not ranked in percentiles either because they have fewer than 30 years of record or because they report parameters other than streamflow. Some stations, for example, measure stage only.
TX Daily Streamflow Conditions



U.S. Drought Monitor